<?xml version="1.0" encoding="UTF-8" standalone="no" ?>
<gpx xmlns="http://www.topografix.com/GPX/1/1" xmlns:xsi="http://www.w3.org/2001/XMLSchema-instance" xsi:schemaLocation="http://www.topografix.com/GPX/1/1 http://www.topografix.com/GPX/1/1/gpx.xsd" version="1.1" creator="VisuGPX - https://www.visugpx.com">
  <metadata>
    <name>testdetrace</name>
    <desc><![CDATA[coucou ceci est un test du logiciel]]></desc>
  </metadata>
  <trk>
    <name><![CDATA[20180222-174233]]></name>
    <trkseg>
      <trkpt lat="48.91449" lon="2.19559">
        <ele>57.03519</ele>
        <time>2018-02-22T17:09:52Z</time>
      </trkpt>
      <trkpt lat="48.91854" lon="2.18878">
        <ele>72.459811</ele>
        <time>2018-02-22T17:10:22Z</time>
      </trkpt>
      <trkpt lat="48.92029" lon="2.18489">
        <ele>70.436491</ele>
        <time>2018-02-22T17:10:52Z</time>
      </trkpt>
      <trkpt lat="48.92027" lon="2.18479">
        <ele>90.105457</ele>
        <time>2018-02-22T17:11:22Z</time>
      </trkpt>
      <trkpt lat="48.92015" lon="2.18445">
        <ele>88.53399</ele>
        <time>2018-02-22T17:11:52Z</time>
      </trkpt>
      <trkpt lat="48.92125" lon="2.18317">
        <ele>74.752922</ele>
        <time>2018-02-22T17:12:22Z</time>
      </trkpt>
      <trkpt lat="48.92469" lon="2.17685">
        <ele>70.561974</ele>
        <time>2018-02-22T17:12:52Z</time>
      </trkpt>
      <trkpt lat="48.92895" lon="2.17023">
        <ele>60.374736</ele>
        <time>2018-02-22T17:13:22Z</time>
      </trkpt>
      <trkpt lat="48.93342" lon="2.16337">
        <ele>56.414846</ele>
        <time>2018-02-22T17:13:52Z</time>
      </trkpt>
      <trkpt lat="48.93697" lon="2.15777">
        <ele>51.177245</ele>
        <time>2018-02-22T17:14:22Z</time>
      </trkpt>
      <trkpt lat="48.93783" lon="2.15645">
        <ele>49.765661</ele>
        <time>2018-02-22T17:14:52Z</time>
      </trkpt>
      <trkpt lat="48.93783" lon="2.15655">
        <ele>51.808166</ele>
        <time>2018-02-22T17:15:22Z</time>
      </trkpt>
      <trkpt lat="48.93844" lon="2.15576">
        <ele>60.111041</ele>
        <time>2018-02-22T17:15:52Z</time>
      </trkpt>
      <trkpt lat="48.94188" lon="2.15011">
        <ele>74.716167</ele>
        <time>2018-02-22T17:16:22Z</time>
      </trkpt>
      <trkpt lat="48.94502" lon="2.14544">
        <ele>85.773571</ele>
        <time>2018-02-22T17:16:52Z</time>
      </trkpt>
      <trkpt lat="48.94573" lon="2.1444">
        <ele>95.011364</ele>
        <time>2018-02-22T17:17:22Z</time>
      </trkpt>
      <trkpt lat="48.94571" lon="2.14449">
        <ele>93.870466</ele>
        <time>2018-02-22T17:17:52Z</time>
      </trkpt>
      <trkpt lat="48.94735" lon="2.14194">
        <ele>83.580673</ele>
        <time>2018-02-22T17:18:22Z</time>
      </trkpt>
      <trkpt lat="48.9514" lon="2.13577">
        <ele>72.187396</ele>
        <time>2018-02-22T17:18:52Z</time>
      </trkpt>
      <trkpt lat="48.95568" lon="2.12876">
        <ele>70.831144</ele>
        <time>2018-02-22T17:19:22Z</time>
      </trkpt>
      <trkpt lat="48.95918" lon="2.12066">
        <ele>70.763513</ele>
        <time>2018-02-22T17:19:52Z</time>
      </trkpt>
      <trkpt lat="48.9604" lon="2.11108">
        <ele>70.307018</ele>
        <time>2018-02-22T17:20:22Z</time>
      </trkpt>
      <trkpt lat="48.95939" lon="2.10214">
        <ele>79.123584</ele>
        <time>2018-02-22T17:20:52Z</time>
      </trkpt>
      <trkpt lat="48.95716" lon="2.09515">
        <ele>83.105299</ele>
        <time>2018-02-22T17:21:22Z</time>
      </trkpt>
      <trkpt lat="48.95515" lon="2.08822">
        <ele>89.94688</ele>
        <time>2018-02-22T17:21:52Z</time>
      </trkpt>
      <trkpt lat="48.95803" lon="2.08204">
        <ele>89.014113</ele>
        <time>2018-02-22T17:22:22Z</time>
      </trkpt>
      <trkpt lat="48.96281" lon="2.07928">
        <ele>81.383021</ele>
        <time>2018-02-22T17:22:52Z</time>
      </trkpt>
      <trkpt lat="48.968" lon="2.07761">
        <ele>76.913756</ele>
        <time>2018-02-22T17:23:22Z</time>
      </trkpt>
      <trkpt lat="48.97087" lon="2.07766">
        <ele>73.807272</ele>
        <time>2018-02-22T17:23:52Z</time>
      </trkpt>
      <trkpt lat="48.97096" lon="2.0777">
        <ele>76.975569</ele>
        <time>2018-02-22T17:24:22Z</time>
      </trkpt>
      <trkpt lat="48.97047" lon="2.07765">
        <ele>69.821196</ele>
        <time>2018-02-22T17:24:52Z</time>
      </trkpt>
      <trkpt lat="48.97013" lon="2.07752">
        <ele>68.010794</ele>
        <time>2018-02-22T17:25:22Z</time>
      </trkpt>
      <trkpt lat="48.9703" lon="2.07701">
        <ele>68.88222</ele>
        <time>2018-02-22T17:25:52Z</time>
      </trkpt>
      <trkpt lat="48.97029" lon="2.07705">
        <ele>67.691937</ele>
        <time>2018-02-22T17:26:22Z</time>
      </trkpt>
      <trkpt lat="48.96877" lon="2.07745">
        <ele>68.003795</ele>
        <time>2018-02-22T17:26:52Z</time>
      </trkpt>
      <trkpt lat="48.96706" lon="2.07615">
        <ele>65.186158</ele>
        <time>2018-02-22T17:27:21Z</time>
      </trkpt>
      <trkpt lat="48.96577" lon="2.07504">
        <ele>81.502161</ele>
        <time>2018-02-22T17:27:51Z</time>
      </trkpt>
      <trkpt lat="48.96432" lon="2.07337">
        <ele>81.029488</ele>
        <time>2018-02-22T17:28:21Z</time>
      </trkpt>
      <trkpt lat="48.96284" lon="2.07334">
        <ele>85.606185</ele>
        <time>2018-02-22T17:28:51Z</time>
      </trkpt>
      <trkpt lat="48.96171" lon="2.07343">
        <ele>86.721794</ele>
        <time>2018-02-22T17:29:21Z</time>
      </trkpt>
      <trkpt lat="48.96075" lon="2.07392">
        <ele>76.226071</ele>
        <time>2018-02-22T17:29:51Z</time>
      </trkpt>
      <trkpt lat="48.95956" lon="2.07418">
        <ele>76.094814</ele>
        <time>2018-02-22T17:30:21Z</time>
      </trkpt>
      <trkpt lat="48.95825" lon="2.07449">
        <ele>77.709671</ele>
        <time>2018-02-22T17:30:51Z</time>
      </trkpt>
      <trkpt lat="48.95767" lon="2.07474">
        <ele>78.822183</ele>
        <time>2018-02-22T17:31:21Z</time>
      </trkpt>
      <trkpt lat="48.95779" lon="2.07523">
        <ele>83.355914</ele>
        <time>2018-02-22T17:31:51Z</time>
      </trkpt>
      <trkpt lat="48.95777" lon="2.07537">
        <ele>83.424294</ele>
        <time>2018-02-22T17:32:21Z</time>
      </trkpt>
    </trkseg>
  </trk>
</gpx>